7TE7 weather

Moore Field
Mission, Texas, United States

Public forecast

Using degrees Fahrenheit for public forecast. Weather courtesy of forecast.io.

Closest aviation weather report (METAR) to Moore Field

Closest report is South Texas International At Edinburg Airport, 11.9 nm (22.0 km) ENE. Retrieved 2019/10/17 17:35 UTC (0 seconds ago):

KEBG 171735Z AUTO 02008KT 10SM SCT020 SCT028 OVC085 25/14 A2997 RMK AO2 T02450136

Closest aviation forecast (TAF) to Moore Field

Closest forecast is Mc Allen Miller International Airport, 13.5 nm (25.0 km) SSE. Retrieved 2019/10/17 12:22 UTC (5 hours ago):

TAF KMFE 171120Z 1712/1812 35009KT P6SM OVC020 FM171500 35008KT P6SM OVC035